sensor_id;sensor_type;location;lat;lon;timestamp;temperature;humidity
2729;DHT22;1372;47.956;7.830;2023-08-24T00:01:18;20.80;99.90
2729;DHT22;1372;47.956;7.830;2023-08-24T00:03:48;20.80;99.90
2729;DHT22;1372;47.956;7.830;2023-08-24T00:06:17;21.00;99.90
2729;DHT22;1372;47.956;7.830;2023-08-24T00:08:48;21.00;99.90
2729;DHT22;1372;47.956;7.830;2023-08-24T00:11:19;21.00;99.90
2729;DHT22;1372;47.956;7.830;2023-08-24T00:13:48;21.00;99.90
2729;DHT22;1372;47.956;7.830;2023-08-24T00:16:19;21.10;99.90
2729;DHT22;1372;47.956;7.830;2023-08-24T00:18:48;21.10;99.90
2729;DHT22;1372;47.956;7.830;2023-08-24T00:21:17;21.30;99.90
2729;DHT22;1372;47.956;7.830;2023-08-24T00:23:51;21.30;99.90
2729;DHT22;1372;47.956;7.830;2023-08-24T00:26:21;21.30;99.90
2729;DHT22;1372;47.956;7.830;2023-08-24T00:28:50;21.20;99.90
2729;DHT22;1372;47.956;7.830;2023-08-24T00:31:19;21.10;99.90
2729;DHT22;1372;47.956;7.830;2023-08-24T00:33:49;21.00;99.90
2729;DHT22;1372;47.956;7.830;2023-08-24T00:36:21;21.10;99.90
2729;DHT22;1372;47.956;7.830;2023-08-24T00:38:52;21.00;99.90
2729;DHT22;1372;47.956;7.830;2023-08-24T00:41:24;20.90;99.90
2729;DHT22;1372;47.956;7.830;2023-08-24T00:43:53;20.90;99.90
2729;DHT22;1372;47.956;7.830;2023-08-24T00:46:22;20.80;99.90
2729;DHT22;1372;47.956;7.830;2023-08-24T00:48:56;20.80;99.90
2729;DHT22;1372;47.956;7.830;2023-08-24T00:51:25;20.70;99.90
2729;DHT22;1372;47.956;7.830;2023-08-24T00:53:56;20.80;99.90
2729;DHT22;1372;47.956;7.830;2023-08-24T00:56:26;20.80;99.90
2729;DHT22;1372;47.956;7.830;2023-08-24T00:58:57;20.80;99.90
2729;DHT22;1372;47.956;7.830;2023-08-24T01:01:26;20.80;99.90
2729;DHT22;1372;47.956;7.830;2023-08-24T01:03:55;20.80;99.90
2729;DHT22;1372;47.956;7.830;2023-08-24T01:06:24;20.80;99.90
2729;DHT22;1372;47.956;7.830;2023-08-24T01:08:58;20.80;99.90
2729;DHT22;1372;47.956;7.830;2023-08-24T01:11:37;20.80;99.90
2729;DHT22;1372;47.956;7.830;2023-08-24T01:14:19;20.70;99.90
2729;DHT22;1372;47.956;7.830;2023-08-24T01:16:54;20.80;99.90
2729;DHT22;1372;47.956;7.830;2023-08-24T01:19:36;20.80;99.90
2729;DHT22;1372;47.956;7.830;2023-08-24T01:22:23;20.70;99.90
2729;DHT22;1372;47.956;7.830;2023-08-24T01:25:06;20.60;99.90
2729;DHT22;1372;47.956;7.830;2023-08-24T01:27:40;20.70;99.90
2729;DHT22;1372;47.956;7.830;2023-08-24T01:30:11;20.70;99.90
2729;DHT22;1372;47.956;7.830;2023-08-24T01:32:40;20.70;99.90
2729;DHT22;1372;47.956;7.830;2023-08-24T01:35:10;20.70;99.90
2729;DHT22;1372;47.956;7.830;2023-08-24T01:37:39;20.70;99.90
2729;DHT22;1372;47.956;7.830;2023-08-24T01:40:15;20.70;99.90
2729;DHT22;1372;47.956;7.830;2023-08-24T01:42:53;20.70;99.90
2729;DHT22;1372;47.956;7.830;2023-08-24T01:45:28;20.70;99.90
2729;DHT22;1372;47.956;7.830;2023-08-24T01:48:00;20.70;99.90
2729;DHT22;1372;47.956;7.830;2023-08-24T01:50:31;20.70;99.90
2729;DHT22;1372;47.956;7.830;2023-08-24T01:53:01;20.70;99.90
2729;DHT22;1372;47.956;7.830;2023-08-24T01:55:30;20.80;99.90
2729;DHT22;1372;47.956;7.830;2023-08-24T01:58:01;20.70;99.90
2729;DHT22;1372;47.956;7.830;2023-08-24T02:00:32;20.80;99.90
2729;DHT22;1372;47.956;7.830;2023-08-24T02:03:04;20.70;99.90
2729;DHT22;1372;47.956;7.830;2023-08-24T02:05:34;20.70;99.90
2729;DHT22;1372;47.956;7.830;2023-08-24T02:08:03;20.70;99.90
2729;DHT22;1372;47.956;7.830;2023-08-24T02:10:35;20.70;99.90
2729;DHT22;1372;47.956;7.830;2023-08-24T02:13:05;20.70;99.90
2729;DHT22;1372;47.956;7.830;2023-08-24T02:15:37;20.70;99.90
2729;DHT22;1372;47.956;7.830;2023-08-24T02:18:06;20.70;99.90
2729;DHT22;1372;47.956;7.830;2023-08-24T02:20:36;20.70;99.90
2729;DHT22;1372;47.956;7.830;2023-08-24T02:23:05;20.80;99.90
2729;DHT22;1372;47.956;7.830;2023-08-24T02:25:35;20.80;99.90
2729;DHT22;1372;47.956;7.830;2023-08-24T02:28:06;20.70;99.90
2729;DHT22;1372;47.956;7.830;2023-08-24T02:30:37;20.80;99.90
2729;DHT22;1372;47.956;7.830;2023-08-24T02:33:06;20.80;99.90
2729;DHT22;1372;47.956;7.830;2023-08-24T02:35:36;20.80;99.90
2729;DHT22;1372;47.956;7.830;2023-08-24T02:38:05;20.80;99.90
2729;DHT22;1372;47.956;7.830;2023-08-24T02:40:37;20.80;99.90
2729;DHT22;1372;47.956;7.830;2023-08-24T02:43:07;20.80;99.90
2729;DHT22;1372;47.956;7.830;2023-08-24T02:45:36;20.90;99.90
2729;DHT22;1372;47.956;7.830;2023-08-24T02:48:05;20.90;99.90
2729;DHT22;1372;47.956;7.830;2023-08-24T02:50:35;20.90;99.90
2729;DHT22;1372;47.956;7.830;2023-08-24T02:53:03;20.90;99.90
2729;DHT22;1372;47.956;7.830;2023-08-24T02:55:33;20.90;99.90
2729;DHT22;1372;47.956;7.830;2023-08-24T02:58:02;20.90;99.90
2729;DHT22;1372;47.956;7.830;2023-08-24T03:00:33;20.90;99.90
2729;DHT22;1372;47.956;7.830;2023-08-24T03:03:02;20.90;99.90
2729;DHT22;1372;47.956;7.830;2023-08-24T03:05:33;20.80;99.90
2729;DHT22;1372;47.956;7.830;2023-08-24T03:08:02;20.90;99.90
2729;DHT22;1372;47.956;7.830;2023-08-24T03:10:34;20.90;99.90
2729;DHT22;1372;47.956;7.830;2023-08-24T03:13:03;20.80;99.90
2729;DHT22;1372;47.956;7.830;2023-08-24T03:15:35;20.80;99.90
2729;DHT22;1372;47.956;7.830;2023-08-24T03:18:08;20.80;99.90
2729;DHT22;1372;47.956;7.830;2023-08-24T03:20:38;20.80;99.90
2729;DHT22;1372;47.956;7.830;2023-08-24T03:23:07;20.80;99.90
2729;DHT22;1372;47.956;7.830;2023-08-24T03:25:37;20.70;99.90
2729;DHT22;1372;47.956;7.830;2023-08-24T03:28:08;20.70;99.90
2729;DHT22;1372;47.956;7.830;2023-08-24T03:30:45;20.70;99.90
2729;DHT22;1372;47.956;7.830;2023-08-24T03:33:16;20.60;99.90
2729;DHT22;1372;47.956;7.830;2023-08-24T03:35:45;20.60;99.90
2729;DHT22;1372;47.956;7.830;2023-08-24T03:38:14;20.60;99.90
2729;DHT22;1372;47.956;7.830;2023-08-24T03:40:43;20.50;99.90
2729;DHT22;1372;47.956;7.830;2023-08-24T03:43:14;20.60;99.90
2729;DHT22;1372;47.956;7.830;2023-08-24T03:45:44;20.60;99.90
2729;DHT22;1372;47.956;7.830;2023-08-24T03:48:13;20.60;99.90
2729;DHT22;1372;47.956;7.830;2023-08-24T03:50:45;20.50;99.90
2729;DHT22;1372;47.956;7.830;2023-08-24T03:53:14;20.40;99.90
2729;DHT22;1372;47.956;7.830;2023-08-24T03:55:47;20.40;99.90
2729;DHT22;1372;47.956;7.830;2023-08-24T03:58:17;20.40;99.90
2729;DHT22;1372;47.956;7.830;2023-08-24T04:00:47;20.30;99.90
2729;DHT22;1372;47.956;7.830;2023-08-24T04:03:16;20.30;99.90
2729;DHT22;1372;47.956;7.830;2023-08-24T04:05:46;20.40;99.90
2729;DHT22;1372;47.956;7.830;2023-08-24T04:08:14;20.40;99.90
2729;DHT22;1372;47.956;7.830;2023-08-24T04:10:45;20.40;99.90
2729;DHT22;1372;47.956;7.830;2023-08-24T04:13:14;20.30;99.90
2729;DHT22;1372;47.956;7.830;2023-08-24T04:15:43;20.30;99.90
2729;DHT22;1372;47.956;7.830;2023-08-24T04:18:14;20.30;99.90
2729;DHT22;1372;47.956;7.830;2023-08-24T04:20:43;20.40;99.90
2729;DHT22;1372;47.956;7.830;2023-08-24T04:23:13;20.30;99.90
2729;DHT22;1372;47.956;7.830;2023-08-24T04:25:43;20.20;99.90
2729;DHT22;1372;47.956;7.830;2023-08-24T04:28:12;20.10;99.90
2729;DHT22;1372;47.956;7.830;2023-08-24T04:30:49;20.10;99.90
2729;DHT22;1372;47.956;7.830;2023-08-24T04:33:20;20.10;99.90
2729;DHT22;1372;47.956;7.830;2023-08-24T04:35:50;20.20;99.90
2729;DHT22;1372;47.956;7.830;2023-08-24T04:38:19;20.20;99.90
2729;DHT22;1372;47.956;7.830;2023-08-24T04:40:49;20.30;99.90
2729;DHT22;1372;47.956;7.830;2023-08-24T04:43:20;20.30;99.90
2729;DHT22;1372;47.956;7.830;2023-08-24T04:45:51;20.30;99.90
2729;DHT22;1372;47.956;7.830;2023-08-24T04:48:23;20.20;99.90
2729;DHT22;1372;47.956;7.830;2023-08-24T04:50:53;20.20;99.90
2729;DHT22;1372;47.956;7.830;2023-08-24T04:53:23;20.30;99.90
2729;DHT22;1372;47.956;7.830;2023-08-24T04:55:52;20.30;99.90
2729;DHT22;1372;47.956;7.830;2023-08-24T04:58:21;20.30;99.90
2729;DHT22;1372;47.956;7.830;2023-08-24T05:00:50;20.30;99.90
2729;DHT22;1372;47.956;7.830;2023-08-24T05:03:19;20.30;99.90
2729;DHT22;1372;47.956;7.830;2023-08-24T05:05:50;20.30;99.90
2729;DHT22;1372;47.956;7.830;2023-08-24T05:08:18;20.30;99.90
2729;DHT22;1372;47.956;7.830;2023-08-24T05:10:47;20.30;99.90
2729;DHT22;1372;47.956;7.830;2023-08-24T05:13:16;20.30;99.90
2729;DHT22;1372;47.956;7.830;2023-08-24T05:15:46;20.30;99.90
2729;DHT22;1372;47.956;7.830;2023-08-24T05:18:15;20.30;99.90
2729;DHT22;1372;47.956;7.830;2023-08-24T05:20:45;20.40;99.90
2729;DHT22;1372;47.956;7.830;2023-08-24T05:23:19;20.50;99.90
2729;DHT22;1372;47.956;7.830;2023-08-24T05:25:48;20.60;99.90
2729;DHT22;1372;47.956;7.830;2023-08-24T05:28:17;20.60;99.90
2729;DHT22;1372;47.956;7.830;2023-08-24T05:30:46;20.50;99.90
2729;DHT22;1372;47.956;7.830;2023-08-24T05:33:16;20.60;99.90
2729;DHT22;1372;47.956;7.830;2023-08-24T05:35:46;20.70;99.90
2729;DHT22;1372;47.956;7.830;2023-08-24T05:38:16;20.80;99.90
2729;DHT22;1372;47.956;7.830;2023-08-24T05:40:48;20.80;99.90
2729;DHT22;1372;47.956;7.830;2023-08-24T05:43:18;20.80;99.90
2729;DHT22;1372;47.956;7.830;2023-08-24T05:45:48;20.80;99.90
2729;DHT22;1372;47.956;7.830;2023-08-24T05:48:21;21.00;99.90
2729;DHT22;1372;47.956;7.830;2023-08-24T05:50:50;21.00;99.90
2729;DHT22;1372;47.956;7.830;2023-08-24T05:53:20;21.10;99.90
2729;DHT22;1372;47.956;7.830;2023-08-24T05:55:57;21.20;99.90
2729;DHT22;1372;47.956;7.830;2023-08-24T05:58:28;21.20;99.90
2729;DHT22;1372;47.956;7.830;2023-08-24T06:00:58;21.30;99.90
2729;DHT22;1372;47.956;7.830;2023-08-24T06:03:27;21.30;99.90
2729;DHT22;1372;47.956;7.830;2023-08-24T06:06:01;21.30;99.90
2729;DHT22;1372;47.956;7.830;2023-08-24T06:08:32;21.30;99.90
2729;DHT22;1372;47.956;7.830;2023-08-24T06:11:02;21.30;99.90
2729;DHT22;1372;47.956;7.830;2023-08-24T06:13:31;21.30;99.90
2729;DHT22;1372;47.956;7.830;2023-08-24T06:16:01;21.30;99.90
2729;DHT22;1372;47.956;7.830;2023-08-24T06:18:30;21.40;99.90
2729;DHT22;1372;47.956;7.830;2023-08-24T06:20:59;21.40;99.90
2729;DHT22;1372;47.956;7.830;2023-08-24T06:23:28;21.40;99.90
2729;DHT22;1372;47.956;7.830;2023-08-24T06:25:57;21.50;99.90
2729;DHT22;1372;47.956;7.830;2023-08-24T06:28:28;21.60;99.90
2729;DHT22;1372;47.956;7.830;2023-08-24T06:30:57;21.70;99.90
2729;DHT22;1372;47.956;7.830;2023-08-24T06:33:27;21.70;99.90
2729;DHT22;1372;47.956;7.830;2023-08-24T06:35:57;21.80;99.90
2729;DHT22;1372;47.956;7.830;2023-08-24T06:38:27;21.90;99.90
2729;DHT22;1372;47.956;7.830;2023-08-24T06:40:57;21.80;99.90
2729;DHT22;1372;47.956;7.830;2023-08-24T06:43:28;21.90;99.90
2729;DHT22;1372;47.956;7.830;2023-08-24T06:45:57;22.00;99.90
2729;DHT22;1372;47.956;7.830;2023-08-24T06:48:26;22.00;99.90
2729;DHT22;1372;47.956;7.830;2023-08-24T06:50:55;22.10;99.90
2729;DHT22;1372;47.956;7.830;2023-08-24T06:53:24;22.10;99.90
2729;DHT22;1372;47.956;7.830;2023-08-24T06:55:54;22.20;99.90
2729;DHT22;1372;47.956;7.830;2023-08-24T06:58:27;22.20;99.90
2729;DHT22;1372;47.956;7.830;2023-08-24T07:00:57;22.20;99.90
2729;DHT22;1372;47.956;7.830;2023-08-24T07:03:26;22.20;99.90
2729;DHT22;1372;47.956;7.830;2023-08-24T07:05:56;22.20;99.90
2729;DHT22;1372;47.956;7.830;2023-08-24T07:08:25;22.20;99.90
2729;DHT22;1372;47.956;7.830;2023-08-24T07:10:54;22.20;99.90
2729;DHT22;1372;47.956;7.830;2023-08-24T07:13:24;22.20;99.90
2729;DHT22;1372;47.956;7.830;2023-08-24T07:16:02;22.20;99.90
2729;DHT22;1372;47.956;7.830;2023-08-24T07:18:32;22.20;99.90
2729;DHT22;1372;47.956;7.830;2023-08-24T07:21:01;22.20;99.90
2729;DHT22;1372;47.956;7.830;2023-08-24T07:23:30;22.20;99.90
2729;DHT22;1372;47.956;7.830;2023-08-24T07:25:59;22.20;99.90
2729;DHT22;1372;47.956;7.830;2023-08-24T07:28:28;22.30;99.90
2729;DHT22;1372;47.956;7.830;2023-08-24T07:30:58;22.30;99.90
2729;DHT22;1372;47.956;7.830;2023-08-24T07:33:29;22.40;99.90
2729;DHT22;1372;47.956;7.830;2023-08-24T07:35:58;22.40;99.90
2729;DHT22;1372;47.956;7.830;2023-08-24T07:38:31;22.50;99.90
2729;DHT22;1372;47.956;7.830;2023-08-24T07:41:00;22.60;99.90
2729;DHT22;1372;47.956;7.830;2023-08-24T07:43:29;22.70;99.90
2729;DHT22;1372;47.956;7.830;2023-08-24T07:45:58;22.80;99.90
2729;DHT22;1372;47.956;7.830;2023-08-24T07:48:29;23.00;99.90
2729;DHT22;1372;47.956;7.830;2023-08-24T07:50:58;23.00;99.90
2729;DHT22;1372;47.956;7.830;2023-08-24T07:53:27;23.20;99.90
2729;DHT22;1372;47.956;7.830;2023-08-24T07:55:56;23.30;99.90
2729;DHT22;1372;47.956;7.830;2023-08-24T07:58:26;23.40;99.90
2729;DHT22;1372;47.956;7.830;2023-08-24T08:00:55;23.50;99.90
2729;DHT22;1372;47.956;7.830;2023-08-24T08:03:24;23.60;99.90
2729;DHT22;1372;47.956;7.830;2023-08-24T08:05:58;23.70;99.90
2729;DHT22;1372;47.956;7.830;2023-08-24T08:08:27;23.80;99.90
2729;DHT22;1372;47.956;7.830;2023-08-24T08:11:00;23.80;99.90
2729;DHT22;1372;47.956;7.830;2023-08-24T08:13:30;23.90;99.90
2729;DHT22;1372;47.956;7.830;2023-08-24T08:16:02;24.00;99.90
2729;DHT22;1372;47.956;7.830;2023-08-24T08:18:32;24.00;99.90
2729;DHT22;1372;47.956;7.830;2023-08-24T08:21:10;24.10;99.90
2729;DHT22;1372;47.956;7.830;2023-08-24T08:23:47;24.10;99.90
2729;DHT22;1372;47.956;7.830;2023-08-24T08:26:18;24.20;99.90
2729;DHT22;1372;47.956;7.830;2023-08-24T08:28:47;24.20;99.90
2729;DHT22;1372;47.956;7.830;2023-08-24T08:31:19;24.30;99.90
2729;DHT22;1372;47.956;7.830;2023-08-24T08:33:48;24.30;99.90
2729;DHT22;1372;47.956;7.830;2023-08-24T08:36:20;24.40;99.90
2729;DHT22;1372;47.956;7.830;2023-08-24T08:38:55;24.50;99.90
2729;DHT22;1372;47.956;7.830;2023-08-24T08:41:30;24.50;99.90
2729;DHT22;1372;47.956;7.830;2023-08-24T08:44:04;24.60;99.90
2729;DHT22;1372;47.956;7.830;2023-08-24T08:46:33;24.70;99.90
2729;DHT22;1372;47.956;7.830;2023-08-24T08:49:02;24.70;99.90
2729;DHT22;1372;47.956;7.830;2023-08-24T08:51:35;24.80;99.90
2729;DHT22;1372;47.956;7.830;2023-08-24T08:54:05;24.90;99.90
2729;DHT22;1372;47.956;7.830;2023-08-24T08:56:34;24.90;99.90
2729;DHT22;1372;47.956;7.830;2023-08-24T08:59:07;25.00;99.90
2729;DHT22;1372;47.956;7.830;2023-08-24T09:01:40;25.10;99.90
2729;DHT22;1372;47.956;7.830;2023-08-24T09:04:12;25.10;99.90
2729;DHT22;1372;47.956;7.830;2023-08-24T09:06:43;25.10;99.90
2729;DHT22;1372;47.956;7.830;2023-08-24T09:09:12;25.00;99.90
2729;DHT22;1372;47.956;7.830;2023-08-24T09:11:42;25.00;99.90
2729;DHT22;1372;47.956;7.830;2023-08-24T09:14:15;25.00;99.90
2729;DHT22;1372;47.956;7.830;2023-08-24T09:16:44;25.00;99.90
2729;DHT22;1372;47.956;7.830;2023-08-24T09:19:15;25.10;99.90
2729;DHT22;1372;47.956;7.830;2023-08-24T09:21:46;25.20;99.90
2729;DHT22;1372;47.956;7.830;2023-08-24T09:24:15;25.20;99.90
2729;DHT22;1372;47.956;7.830;2023-08-24T09:26:44;25.40;99.90
2729;DHT22;1372;47.956;7.830;2023-08-24T09:29:14;25.50;99.90
2729;DHT22;1372;47.956;7.830;2023-08-24T09:31:44;25.50;99.90
2729;DHT22;1372;47.956;7.830;2023-08-24T09:34:15;25.50;99.90
2729;DHT22;1372;47.956;7.830;2023-08-24T09:36:50;25.50;99.90
2729;DHT22;1372;47.956;7.830;2023-08-24T09:39:18;25.50;99.90
2729;DHT22;1372;47.956;7.830;2023-08-24T09:41:50;25.50;99.90
2729;DHT22;1372;47.956;7.830;2023-08-24T09:44:20;25.60;99.90
2729;DHT22;1372;47.956;7.830;2023-08-24T09:46:50;25.60;99.90
2729;DHT22;1372;47.956;7.830;2023-08-24T09:49:19;25.50;99.90
2729;DHT22;1372;47.956;7.830;2023-08-24T09:51:50;25.70;99.90
2729;DHT22;1372;47.956;7.830;2023-08-24T09:54:22;25.70;99.90
2729;DHT22;1372;47.956;7.830;2023-08-24T09:57:00;25.80;99.90
2729;DHT22;1372;47.956;7.830;2023-08-24T09:59:31;25.80;99.90
2729;DHT22;1372;47.956;7.830;2023-08-24T10:02:04;25.80;99.90
2729;DHT22;1372;47.956;7.830;2023-08-24T10:04:44;26.00;99.90
2729;DHT22;1372;47.956;7.830;2023-08-24T10:07:20;26.00;99.90
2729;DHT22;1372;47.956;7.830;2023-08-24T10:09:57;26.10;99.90
2729;DHT22;1372;47.956;7.830;2023-08-24T10:12:44;26.20;99.90
2729;DHT22;1372;47.956;7.830;2023-08-24T10:15:20;26.30;99.90
2729;DHT22;1372;47.956;7.830;2023-08-24T10:17:51;26.30;99.90
2729;DHT22;1372;47.956;7.830;2023-08-24T10:20:21;26.50;99.90
2729;DHT22;1372;47.956;7.830;2023-08-24T10:22:52;26.60;99.90
2729;DHT22;1372;47.956;7.830;2023-08-24T10:25:22;26.60;99.90
2729;DHT22;1372;47.956;7.830;2023-08-24T10:27:54;26.70;99.90
2729;DHT22;1372;47.956;7.830;2023-08-24T10:30:24;26.70;99.90
2729;DHT22;1372;47.956;7.830;2023-08-24T10:32:55;26.80;99.90
2729;DHT22;1372;47.956;7.830;2023-08-24T10:35:25;26.90;99.90
2729;DHT22;1372;47.956;7.830;2023-08-24T10:37:58;27.00;99.90
2729;DHT22;1372;47.956;7.830;2023-08-24T10:40:31;27.10;99.90
2729;DHT22;1372;47.956;7.830;2023-08-24T10:43:04;27.10;99.90
2729;DHT22;1372;47.956;7.830;2023-08-24T10:45:57;27.10;99.90
2729;DHT22;1372;47.956;7.830;2023-08-24T10:48:28;27.20;99.90
2729;DHT22;1372;47.956;7.830;2023-08-24T10:51:18;27.10;99.90
2729;DHT22;1372;47.956;7.830;2023-08-24T10:53:51;27.10;99.90
2729;DHT22;1372;47.956;7.830;2023-08-24T10:56:30;27.10;99.90
2729;DHT22;1372;47.956;7.830;2023-08-24T10:59:19;27.20;99.90
2729;DHT22;1372;47.956;7.830;2023-08-24T11:01:55;27.30;99.90
2729;DHT22;1372;47.956;7.830;2023-08-24T11:04:27;27.50;99.90
2729;DHT22;1372;47.956;7.830;2023-08-24T11:06:57;27.60;99.90
2729;DHT22;1372;47.956;7.830;2023-08-24T11:12:28;27.60;99.90
2729;DHT22;1372;47.956;7.830;2023-08-24T11:14:57;27.70;99.90
2729;DHT22;1372;47.956;7.830;2023-08-24T11:17:30;27.70;99.90
2729;DHT22;1372;47.956;7.830;2023-08-24T11:20:00;27.80;99.90
2729;DHT22;1372;47.956;7.830;2023-08-24T11:22:33;28.00;99.90
2729;DHT22;1372;47.956;7.830;2023-08-24T11:25:04;28.20;99.90
2729;DHT22;1372;47.956;7.830;2023-08-24T11:27:35;28.30;99.90
2729;DHT22;1372;47.956;7.830;2023-08-24T11:30:06;28.40;99.90
2729;DHT22;1372;47.956;7.830;2023-08-24T11:32:36;28.40;99.90
2729;DHT22;1372;47.956;7.830;2023-08-24T11:35:07;28.50;99.90
2729;DHT22;1372;47.956;7.830;2023-08-24T11:37:39;28.50;99.90
2729;DHT22;1372;47.956;7.830;2023-08-24T11:40:16;28.50;99.90
2729;DHT22;1372;47.956;7.830;2023-08-24T11:42:48;28.50;99.90
2729;DHT22;1372;47.956;7.830;2023-08-24T11:45:18;28.60;99.90
2729;DHT22;1372;47.956;7.830;2023-08-24T11:47:47;28.60;99.90
2729;DHT22;1372;47.956;7.830;2023-08-24T11:50:18;28.60;99.90
2729;DHT22;1372;47.956;7.830;2023-08-24T11:52:47;28.70;99.90
2729;DHT22;1372;47.956;7.830;2023-08-24T11:55:16;28.70;99.90
2729;DHT22;1372;47.956;7.830;2023-08-24T11:57:47;28.70;99.90
2729;DHT22;1372;47.956;7.830;2023-08-24T12:00:17;28.80;99.90
2729;DHT22;1372;47.956;7.830;2023-08-24T12:02:47;28.90;99.90
2729;DHT22;1372;47.956;7.830;2023-08-24T12:05:24;29.00;99.90
2729;DHT22;1372;47.956;7.830;2023-08-24T12:07:55;29.10;99.90
2729;DHT22;1372;47.956;7.830;2023-08-24T12:10:25;29.20;99.90
2729;DHT22;1372;47.956;7.830;2023-08-24T12:13:03;29.20;99.90
2729;DHT22;1372;47.956;7.830;2023-08-24T12:15:34;29.40;99.90
2729;DHT22;1372;47.956;7.830;2023-08-24T12:18:09;29.80;99.90
2729;DHT22;1372;47.956;7.830;2023-08-24T12:20:40;30.00;99.90
2729;DHT22;1372;47.956;7.830;2023-08-24T12:23:11;30.10;99.90
2729;DHT22;1372;47.956;7.830;2023-08-24T12:25:42;30.00;99.90
2729;DHT22;1372;47.956;7.830;2023-08-24T12:28:14;30.00;99.90
2729;DHT22;1372;47.956;7.830;2023-08-24T12:30:48;30.00;99.90
2729;DHT22;1372;47.956;7.830;2023-08-24T12:33:24;30.10;99.90
2729;DHT22;1372;47.956;7.830;2023-08-24T12:35:54;30.10;99.90
2729;DHT22;1372;47.956;7.830;2023-08-24T12:38:24;30.20;99.90
2729;DHT22;1372;47.956;7.830;2023-08-24T12:40:53;30.20;99.90
2729;DHT22;1372;47.956;7.830;2023-08-24T12:43:24;30.20;99.90
2729;DHT22;1372;47.956;7.830;2023-08-24T12:45:53;30.20;99.90
2729;DHT22;1372;47.956;7.830;2023-08-24T12:48:22;30.30;99.90
2729;DHT22;1372;47.956;7.830;2023-08-24T12:50:51;30.50;99.90
2729;DHT22;1372;47.956;7.830;2023-08-24T12:53:21;30.70;99.90
2729;DHT22;1372;47.956;7.830;2023-08-24T12:55:50;30.70;99.90
2729;DHT22;1372;47.956;7.830;2023-08-24T12:58:18;30.80;99.90
2729;DHT22;1372;47.956;7.830;2023-08-24T13:00:48;30.70;99.90
2729;DHT22;1372;47.956;7.830;2023-08-24T13:03:19;30.70;99.90
2729;DHT22;1372;47.956;7.830;2023-08-24T13:05:49;30.80;99.90
2729;DHT22;1372;47.956;7.830;2023-08-24T13:08:21;30.80;99.90
2729;DHT22;1372;47.956;7.830;2023-08-24T13:10:50;30.90;99.90
2729;DHT22;1372;47.956;7.830;2023-08-24T13:13:19;31.10;99.90
2729;DHT22;1372;47.956;7.830;2023-08-24T13:15:51;31.30;99.90
2729;DHT22;1372;47.956;7.830;2023-08-24T13:18:21;31.30;99.90
2729;DHT22;1372;47.956;7.830;2023-08-24T13:20:50;31.20;99.90
2729;DHT22;1372;47.956;7.830;2023-08-24T13:23:19;31.30;99.90
2729;DHT22;1372;47.956;7.830;2023-08-24T13:25:48;31.40;99.90
2729;DHT22;1372;47.956;7.830;2023-08-24T13:28:16;31.40;99.90
2729;DHT22;1372;47.956;7.830;2023-08-24T13:30:45;31.50;99.90
2729;DHT22;1372;47.956;7.830;2023-08-24T13:33:17;31.70;99.90
2729;DHT22;1372;47.956;7.830;2023-08-24T13:35:47;31.70;99.90
2729;DHT22;1372;47.956;7.830;2023-08-24T13:38:18;31.90;99.90
2729;DHT22;1372;47.956;7.830;2023-08-24T13:40:47;32.10;99.90
2729;DHT22;1372;47.956;7.830;2023-08-24T13:43:17;32.40;99.90
2729;DHT22;1372;47.956;7.830;2023-08-24T13:45:49;32.50;99.90
2729;DHT22;1372;47.956;7.830;2023-08-24T13:48:21;32.50;99.90
2729;DHT22;1372;47.956;7.830;2023-08-24T13:50:52;32.60;99.90
2729;DHT22;1372;47.956;7.830;2023-08-24T13:53:20;32.90;99.90
2729;DHT22;1372;47.956;7.830;2023-08-24T13:55:53;32.90;99.90
2729;DHT22;1372;47.956;7.830;2023-08-24T13:58:24;32.80;99.90
2729;DHT22;1372;47.956;7.830;2023-08-24T14:00:57;32.60;99.90
2729;DHT22;1372;47.956;7.830;2023-08-24T14:03:32;32.50;99.90
2729;DHT22;1372;47.956;7.830;2023-08-24T14:06:02;32.40;99.90
2729;DHT22;1372;47.956;7.830;2023-08-24T14:08:34;32.40;99.90
2729;DHT22;1372;47.956;7.830;2023-08-24T14:11:03;32.70;99.90
2729;DHT22;1372;47.956;7.830;2023-08-24T14:13:33;32.70;99.90
2729;DHT22;1372;47.956;7.830;2023-08-24T14:16:02;32.70;99.90
2729;DHT22;1372;47.956;7.830;2023-08-24T14:18:32;32.80;99.90
2729;DHT22;1372;47.956;7.830;2023-08-24T14:21:03;32.90;99.90
2729;DHT22;1372;47.956;7.830;2023-08-24T14:23:34;32.80;99.90
2729;DHT22;1372;47.956;7.830;2023-08-24T14:26:04;32.90;99.90
2729;DHT22;1372;47.956;7.830;2023-08-24T14:28:50;32.90;99.90
2729;DHT22;1372;47.956;7.830;2023-08-24T14:31:21;33.10;99.90
2729;DHT22;1372;47.956;7.830;2023-08-24T14:33:51;33.10;99.90
2729;DHT22;1372;47.956;7.830;2023-08-24T14:36:21;33.20;99.90
2729;DHT22;1372;47.956;7.830;2023-08-24T14:38:50;33.20;99.90
2729;DHT22;1372;47.956;7.830;2023-08-24T14:41:20;33.30;99.90
2729;DHT22;1372;47.956;7.830;2023-08-24T14:43:49;33.30;99.90
2729;DHT22;1372;47.956;7.830;2023-08-24T14:46:18;33.30;99.90
2729;DHT22;1372;47.956;7.830;2023-08-24T14:48:47;33.20;99.90
2729;DHT22;1372;47.956;7.830;2023-08-24T14:51:17;33.20;99.90
2729;DHT22;1372;47.956;7.830;2023-08-24T14:53:46;33.10;99.90
2729;DHT22;1372;47.956;7.830;2023-08-24T14:56:15;33.20;99.90
2729;DHT22;1372;47.956;7.830;2023-08-24T14:58:44;33.20;99.90
2729;DHT22;1372;47.956;7.830;2023-08-24T15:01:12;33.40;99.90
2729;DHT22;1372;47.956;7.830;2023-08-24T15:03:43;33.40;99.90
2729;DHT22;1372;47.956;7.830;2023-08-24T15:06:14;33.30;99.90
2729;DHT22;1372;47.956;7.830;2023-08-24T15:08:45;33.20;99.90
2729;DHT22;1372;47.956;7.830;2023-08-24T15:11:15;33.00;99.90
2729;DHT22;1372;47.956;7.830;2023-08-24T15:13:47;32.90;99.90
2729;DHT22;1372;47.956;7.830;2023-08-24T15:16:16;32.80;99.90
2729;DHT22;1372;47.956;7.830;2023-08-24T15:18:45;32.60;99.90
2729;DHT22;1372;47.956;7.830;2023-08-24T15:21:13;32.50;99.90
2729;DHT22;1372;47.956;7.830;2023-08-24T15:23:43;32.30;99.90
2729;DHT22;1372;47.956;7.830;2023-08-24T15:26:13;32.30;99.90
2729;DHT22;1372;47.956;7.830;2023-08-24T15:29:07;32.20;99.90
2729;DHT22;1372;47.956;7.830;2023-08-24T15:31:50;32.20;99.90
2729;DHT22;1372;47.956;7.830;2023-08-24T15:34:19;31.90;99.90
2729;DHT22;1372;47.956;7.830;2023-08-24T15:36:50;31.60;99.90
2729;DHT22;1372;47.956;7.830;2023-08-24T15:39:22;31.40;99.90
2729;DHT22;1372;47.956;7.830;2023-08-24T15:41:51;31.20;99.90
2729;DHT22;1372;47.956;7.830;2023-08-24T15:44:20;30.90;99.90
2729;DHT22;1372;47.956;7.830;2023-08-24T15:46:49;30.70;99.90
2729;DHT22;1372;47.956;7.830;2023-08-24T15:49:20;30.60;99.90
2729;DHT22;1372;47.956;7.830;2023-08-24T15:51:52;30.50;99.90
2729;DHT22;1372;47.956;7.830;2023-08-24T15:54:24;30.30;99.90
2729;DHT22;1372;47.956;7.830;2023-08-24T15:56:53;30.20;99.90
2729;DHT22;1372;47.956;7.830;2023-08-24T15:59:23;30.10;99.90
2729;DHT22;1372;47.956;7.830;2023-08-24T16:01:52;30.00;99.90
2729;DHT22;1372;47.956;7.830;2023-08-24T16:04:21;29.90;99.90
2729;DHT22;1372;47.956;7.830;2023-08-24T16:06:52;29.80;99.90
2729;DHT22;1372;47.956;7.830;2023-08-24T16:09:21;29.70;99.90
2729;DHT22;1372;47.956;7.830;2023-08-24T16:11:51;29.70;99.90
2729;DHT22;1372;47.956;7.830;2023-08-24T16:14:20;29.60;99.90
2729;DHT22;1372;47.956;7.830;2023-08-24T16:16:49;29.60;99.90
2729;DHT22;1372;47.956;7.830;2023-08-24T16:19:18;29.50;99.90
2729;DHT22;1372;47.956;7.830;2023-08-24T16:21:50;29.40;99.90
2729;DHT22;1372;47.956;7.830;2023-08-24T16:24:21;29.40;99.90
2729;DHT22;1372;47.956;7.830;2023-08-24T16:26:51;29.40;99.90
2729;DHT22;1372;47.956;7.830;2023-08-24T16:29:45;29.30;99.90